createdAt,value
2022-09-12T00:00:39.288Z,11.36
2022-09-12T00:01:39.379Z,11.35
2022-09-12T00:02:39.273Z,11.40
2022-09-12T00:03:39.264Z,11.40
2022-09-12T00:04:39.281Z,11.35
2022-09-12T00:05:39.255Z,11.33
2022-09-12T00:06:39.238Z,11.40
2022-09-12T00:07:39.234Z,11.41
2022-09-12T00:08:39.232Z,11.43
2022-09-12T00:09:39.242Z,11.35
2022-09-12T00:10:39.208Z,11.35
2022-09-12T00:11:39.201Z,11.41
2022-09-12T00:12:39.197Z,11.37
2022-09-12T00:13:41.729Z,11.37
2022-09-12T00:14:40.207Z,11.29
2022-09-12T00:15:39.175Z,11.43
2022-09-12T00:16:39.240Z,11.51
2022-09-12T00:17:39.160Z,11.40
2022-09-12T00:18:39.177Z,11.48
2022-09-12T00:19:39.151Z,11.47
2022-09-12T00:20:39.141Z,11.57
2022-09-12T00:21:39.124Z,11.48
2022-09-12T00:22:39.120Z,11.47
2022-09-12T00:23:39.134Z,11.54
2022-09-12T00:24:39.110Z,11.57
2022-09-12T00:25:39.094Z,11.55
2022-09-12T00:26:39.085Z,11.66
2022-09-12T00:27:39.082Z,11.57
2022-09-12T00:28:39.094Z,11.65
2022-09-12T00:29:39.062Z,11.68
2022-09-12T00:30:39.052Z,11.69
2022-09-12T00:31:39.082Z,11.69
2022-09-12T00:32:39.044Z,11.84
2022-09-12T00:33:39.060Z,11.80
2022-09-12T00:34:39.018Z,11.78
2022-09-12T00:35:39.016Z,11.81
2022-09-12T00:36:39.008Z,11.88
2022-09-12T00:37:38.999Z,11.84
2022-09-12T00:38:39.021Z,11.83
2022-09-12T00:39:39.126Z,11.83
2022-09-12T00:40:38.978Z,11.75
2022-09-12T00:41:38.967Z,11.80
2022-09-12T00:42:38.964Z,11.77
2022-09-12T00:43:38.976Z,11.78
2022-09-12T00:44:38.943Z,11.83
2022-09-12T00:45:39.038Z,11.83
2022-09-12T00:46:38.935Z,11.88
2022-09-12T00:47:38.923Z,11.91
2022-09-12T00:48:38.942Z,12.03
2022-09-12T00:49:38.906Z,11.86
2022-09-12T00:50:38.898Z,11.91
2022-09-12T00:51:38.892Z,12.00
2022-09-12T00:52:38.882Z,11.99
2022-09-12T00:53:38.900Z,11.91
2022-09-12T00:54:38.864Z,12.03
2022-09-12T00:55:38.862Z,12.03
2022-09-12T00:56:38.855Z,12.10
2022-09-12T00:57:38.847Z,12.00
2022-09-12T00:58:38.864Z,11.91
2022-09-12T00:59:38.830Z,12.07
2022-09-12T01:00:38.825Z,11.97
2022-09-12T01:01:38.938Z,12.04
2022-09-12T01:02:38.836Z,12.04
2022-09-12T01:03:38.810Z,11.94
2022-09-12T01:04:38.802Z,11.94
2022-09-12T01:05:38.782Z,12.04
2022-09-12T01:06:38.774Z,11.91
2022-09-12T01:07:40.209Z,11.86
2022-09-12T01:08:39.765Z,11.91
2022-09-12T01:09:38.764Z,11.88
2022-09-12T01:10:38.757Z,11.97
2022-09-12T01:11:38.737Z,11.90
2022-09-12T01:12:38.767Z,12.04
2022-09-12T01:13:38.747Z,11.91
2022-09-12T01:14:38.722Z,11.88
2022-09-12T01:15:38.705Z,11.91
2022-09-12T01:16:38.770Z,11.88
2022-09-12T01:17:38.736Z,11.86
2022-09-12T01:18:38.676Z,11.69
2022-09-12T01:19:39.679Z,11.66
2022-09-12T01:20:38.672Z,11.78
2022-09-12T01:21:38.657Z,11.81
2022-09-12T01:22:38.683Z,11.70
2022-09-12T01:23:38.647Z,11.72
2022-09-12T01:24:38.639Z,11.78
2022-09-12T01:25:38.628Z,11.87
2022-09-12T01:26:38.615Z,11.73
2022-09-12T01:27:38.650Z,11.90
2022-09-12T01:28:38.605Z,11.81
2022-09-12T01:29:38.604Z,11.86
2022-09-12T01:30:38.591Z,11.80
2022-09-12T01:31:38.588Z,11.88
2022-09-12T01:32:38.580Z,11.87
2022-09-12T01:33:38.595Z,11.86
2022-09-12T01:34:38.563Z,11.84
2022-09-12T01:35:38.548Z,11.94
2022-09-12T01:36:38.544Z,12.07
2022-09-12T01:37:38.531Z,11.83
2022-09-12T01:38:38.553Z,11.86
2022-09-12T01:39:38.588Z,11.75
2022-09-12T01:40:38.513Z,11.60
2022-09-12T01:41:38.500Z,11.72
2022-09-12T01:42:38.503Z,11.66
2022-09-12T01:43:38.517Z,11.69
2022-09-12T01:44:38.483Z,11.55
2022-09-12T01:45:38.504Z,11.69
2022-09-12T01:46:38.467Z,11.65
2022-09-12T01:47:38.453Z,11.63
2022-09-12T01:48:38.480Z,11.65
2022-09-12T01:49:38.438Z,11.75
2022-09-12T01:50:38.440Z,11.68
2022-09-12T01:51:38.426Z,11.72
2022-09-12T01:52:38.406Z,11.72
2022-09-12T01:53:39.436Z,11.77
2022-09-12T01:54:38.405Z,11.80
2022-09-12T01:55:38.389Z,11.83
2022-09-12T01:56:38.389Z,11.90
2022-09-12T01:57:38.370Z,11.91
2022-09-12T01:58:38.392Z,11.95
2022-09-12T01:59:38.356Z,11.90
2022-09-12T02:00:38.346Z,11.86
2022-09-12T02:01:38.349Z,11.86
2022-09-12T02:02:38.332Z,11.94
2022-09-12T02:03:38.369Z,11.87
2022-09-12T02:04:38.318Z,11.99
2022-09-12T02:05:38.305Z,11.83
2022-09-12T02:06:38.310Z,11.78
2022-09-12T02:07:38.297Z,11.72
2022-09-12T02:08:38.324Z,11.80
2022-09-12T02:09:38.276Z,11.72
2022-09-12T02:10:38.272Z,11.70
2022-09-12T02:11:38.266Z,11.59
2022-09-12T02:12:38.256Z,11.62
2022-09-12T02:13:38.276Z,11.55
2022-09-12T02:14:38.241Z,11.57
2022-09-12T02:15:38.239Z,11.63
2022-09-12T02:16:38.249Z,11.50
2022-09-12T02:17:38.216Z,11.43
2022-09-12T02:18:38.235Z,11.41
2022-09-12T02:19:38.205Z,11.37
2022-09-12T02:20:48.077Z,11.48
2022-09-12T02:21:40.188Z,11.51
2022-09-12T02:22:38.177Z,11.54
2022-09-12T02:23:38.199Z,11.45
2022-09-12T02:24:38.162Z,11.54
2022-09-12T02:25:38.154Z,11.52
2022-09-12T02:26:38.144Z,11.57
2022-09-12T02:27:38.137Z,11.52
2022-09-12T02:28:38.158Z,11.57
2022-09-12T02:29:38.120Z,11.57
2022-09-12T02:30:38.171Z,11.45
2022-09-12T02:31:38.103Z,11.55
2022-09-12T02:32:38.107Z,11.70
2022-09-12T02:33:38.117Z,11.60
2022-09-12T02:34:38.082Z,11.62
2022-09-12T02:35:38.071Z,11.66
2022-09-12T02:36:38.081Z,11.65
2022-09-12T02:37:38.062Z,11.70
2022-09-12T02:38:38.077Z,11.70
2022-09-12T02:39:41.090Z,11.72
2022-09-12T02:40:39.050Z,11.66
2022-09-12T02:41:38.033Z,11.69
2022-09-12T02:42:38.108Z,11.75
2022-09-12T02:43:38.036Z,11.84
2022-09-12T02:44:38.002Z,11.80
2022-09-12T02:45:38.038Z,11.90
2022-09-12T02:46:37.991Z,11.88
2022-09-12T02:47:37.976Z,11.83
2022-09-12T02:48:38.003Z,11.84
2022-09-12T02:49:37.969Z,11.86
2022-09-12T02:50:38.004Z,12.03
2022-09-12T02:51:37.946Z,11.95
2022-09-12T02:52:37.941Z,12.06
2022-09-12T02:53:37.988Z,12.04
2022-09-12T02:54:37.957Z,11.91
2022-09-12T02:55:37.931Z,12.03
2022-09-12T02:56:37.908Z,12.00
2022-09-12T02:57:37.908Z,12.09
2022-09-12T02:58:37.922Z,12.10
2022-09-12T02:59:37.886Z,12.09
2022-09-12T03:00:37.867Z,12.13
2022-09-12T03:01:38.872Z,12.13
2022-09-12T03:02:37.864Z,12.17
2022-09-12T03:03:42.707Z,12.07
2022-09-12T03:04:39.846Z,12.10
2022-09-12T03:05:37.842Z,12.09
2022-09-12T03:06:37.837Z,12.20
2022-09-12T03:07:37.830Z,12.06
2022-09-12T03:08:37.840Z,12.09
2022-09-12T03:09:37.807Z,12.10
2022-09-12T03:10:37.795Z,12.07
2022-09-12T03:11:37.789Z,12.17
2022-09-12T03:12:37.786Z,12.17
2022-09-12T03:13:37.812Z,12.15
2022-09-12T03:14:37.769Z,12.12
2022-09-12T03:15:37.757Z,12.10
2022-09-12T03:16:37.798Z,12.13
2022-09-12T03:17:37.737Z,12.04
2022-09-12T03:18:37.757Z,12.13
2022-09-12T03:19:37.730Z,12.10
2022-09-12T03:20:37.718Z,12.04
2022-09-12T03:21:37.709Z,12.10
2022-09-12T03:22:37.703Z,12.06
2022-09-12T03:23:37.723Z,12.12
2022-09-12T03:24:37.688Z,12.09
2022-09-12T03:25:37.681Z,12.12
2022-09-12T03:26:37.719Z,12.00
2022-09-12T03:27:37.666Z,11.90
2022-09-12T03:28:37.682Z,11.99
2022-09-12T03:29:37.649Z,11.97
2022-09-12T03:30:37.680Z,12.06
2022-09-12T03:31:37.633Z,11.97
2022-09-12T03:32:37.624Z,11.99
2022-09-12T03:33:37.646Z,12.02
2022-09-12T03:34:37.613Z,11.94
2022-09-12T03:35:37.604Z,12.00
2022-09-12T03:36:37.597Z,11.99
2022-09-12T03:37:37.589Z,12.07
2022-09-12T03:38:37.600Z,12.03
2022-09-12T03:39:37.608Z,12.03
2022-09-12T03:40:37.566Z,12.07
2022-09-12T03:41:37.554Z,12.02
2022-09-12T03:42:37.553Z,12.10
2022-09-12T03:43:37.565Z,12.04
2022-09-12T03:44:37.530Z,12.12
2022-09-12T03:45:37.628Z,12.12
2022-09-12T03:46:37.516Z,12.04
2022-09-12T03:47:37.509Z,12.09
2022-09-12T03:48:37.524Z,12.12
2022-09-12T03:49:37.491Z,12.02
2022-09-12T03:50:37.482Z,12.06
2022-09-12T03:51:37.471Z,12.12
2022-09-12T03:52:37.464Z,12.20
2022-09-12T03:53:37.459Z,12.10
2022-09-12T03:54:37.473Z,12.17
2022-09-12T03:55:37.438Z,12.07
2022-09-12T03:56:37.434Z,12.07
2022-09-12T03:57:37.424Z,12.04
2022-09-12T03:58:37.415Z,12.07
2022-09-12T03:59:37.439Z,11.99
2022-09-12T04:00:37.398Z,11.94
2022-09-12T04:01:37.392Z,12.03
2022-09-12T04:02:37.379Z,12.04
2022-09-12T04:03:37.375Z,12.04
2022-09-12T04:04:37.395Z,12.00
2022-09-12T04:05:37.360Z,12.06
2022-09-12T04:06:37.350Z,12.09
2022-09-12T04:07:37.345Z,12.02
2022-09-12T04:08:37.342Z,11.97
2022-09-12T04:09:37.351Z,12.06
2022-09-12T04:10:37.315Z,12.04
2022-09-12T04:11:37.307Z,12.06
2022-09-12T04:12:37.300Z,11.95
2022-09-12T04:13:37.292Z,11.86
2022-09-12T04:14:37.310Z,11.97
2022-09-12T04:15:37.277Z,11.91
2022-09-12T04:16:37.302Z,12.00
2022-09-12T04:17:37.259Z,11.94
2022-09-12T04:18:37.257Z,11.95
2022-09-12T04:19:37.269Z,11.86
2022-09-12T04:20:37.239Z,11.81
2022-09-12T04:21:37.230Z,11.78
2022-09-12T04:22:37.225Z,11.78
2022-09-12T04:23:37.216Z,11.77
2022-09-12T04:24:37.256Z,11.80
2022-09-12T04:25:37.196Z,11.78
2022-09-12T04:26:37.188Z,11.77
2022-09-12T04:27:37.181Z,11.62
2022-09-12T04:28:37.175Z,11.57
2022-09-12T04:29:37.190Z,11.51
2022-09-12T04:30:37.247Z,11.54
2022-09-12T04:31:37.154Z,11.62
2022-09-12T04:32:37.153Z,11.52
2022-09-12T04:33:37.138Z,11.59
2022-09-12T04:34:37.154Z,11.60
2022-09-12T04:35:37.113Z,11.48
2022-09-12T04:36:38.112Z,11.55
2022-09-12T04:37:37.104Z,11.55
2022-09-12T04:38:37.096Z,11.65
2022-09-12T04:39:37.471Z,11.59
2022-09-12T04:40:37.083Z,11.55
2022-09-12T04:41:37.074Z,11.55
2022-09-12T04:42:37.069Z,11.59
2022-09-12T04:43:37.056Z,11.54
2022-09-12T04:44:37.076Z,11.68
2022-09-12T04:45:37.092Z,11.68
2022-09-12T04:46:37.039Z,11.59
2022-09-12T04:47:37.027Z,11.65
2022-09-12T04:48:37.037Z,11.63
2022-09-12T04:49:37.039Z,11.72
2022-09-12T04:50:37.002Z,11.73
2022-09-12T04:51:36.995Z,11.72
2022-09-12T04:52:36.990Z,11.70
2022-09-12T04:53:36.982Z,11.77
2022-09-12T04:54:36.996Z,11.77
2022-09-12T04:55:36.964Z,11.75
2022-09-12T04:56:36.967Z,11.69
2022-09-12T04:57:36.966Z,11.70
2022-09-12T04:58:36.942Z,11.78
2022-09-12T04:59:36.959Z,11.77
2022-09-12T05:00:36.923Z,11.81
2022-09-12T05:01:37.000Z,11.78
2022-09-12T05:02:36.937Z,11.72
2022-09-12T05:03:36.898Z,11.73
2022-09-12T05:04:36.915Z,11.77
2022-09-12T05:05:36.882Z,11.70
2022-09-12T05:06:36.875Z,11.81
2022-09-12T05:07:36.865Z,11.75
2022-09-12T05:08:36.848Z,11.72
2022-09-12T05:09:37.877Z,11.77
2022-09-12T05:10:36.843Z,11.75
2022-09-12T05:12:02.520Z,11.73
2022-09-12T05:12:38.830Z,11.84
2022-09-12T05:13:36.823Z,11.68
2022-09-12T05:14:36.838Z,11.73
2022-09-12T05:15:36.806Z,11.77
2022-09-12T05:16:36.842Z,11.63
2022-09-12T05:17:36.795Z,11.62
2022-09-12T05:18:36.845Z,11.65
2022-09-12T05:19:36.800Z,11.72
2022-09-12T05:20:37.766Z,11.68
2022-09-12T05:21:36.761Z,11.77
2022-09-12T05:22:36.749Z,11.69
2022-09-12T05:23:36.743Z,11.62
2022-09-12T05:24:36.760Z,11.73
2022-09-12T05:25:36.728Z,11.72
2022-09-12T05:26:36.720Z,11.69
2022-09-12T05:27:36.713Z,11.72
2022-09-12T05:28:36.705Z,11.73
2022-09-12T05:29:36.719Z,11.80
2022-09-12T05:30:36.711Z,11.80
2022-09-12T05:31:36.684Z,11.80
2022-09-12T05:32:36.672Z,11.87
2022-09-12T05:33:36.663Z,11.83
2022-09-12T05:34:36.688Z,11.86
2022-09-12T05:35:36.648Z,11.83
2022-09-12T05:36:36.641Z,11.91
2022-09-12T05:37:36.633Z,11.80
2022-09-12T05:38:36.624Z,11.87
2022-09-12T05:39:36.638Z,11.80
2022-09-12T05:40:36.608Z,11.75
2022-09-12T05:41:36.605Z,11.80
2022-09-12T05:42:36.595Z,11.81
2022-09-12T05:43:36.588Z,11.87
2022-09-12T05:44:36.606Z,11.87
2022-09-12T05:45:36.597Z,12.00
2022-09-12T05:46:36.566Z,11.94
2022-09-12T05:47:36.556Z,12.10
2022-09-12T05:48:36.553Z,12.18
2022-09-12T05:49:36.565Z,12.15
2022-09-12T05:50:36.533Z,12.22
2022-09-12T05:51:36.568Z,12.25
2022-09-12T05:52:36.519Z,12.18
2022-09-12T05:53:36.508Z,12.25
2022-09-12T05:54:36.525Z,12.24
2022-09-12T05:55:36.490Z,12.37
2022-09-12T05:56:36.480Z,12.37
2022-09-12T05:57:36.490Z,12.36
2022-09-12T05:58:36.470Z,12.37
2022-09-12T05:59:36.487Z,12.39
2022-09-12T06:00:36.453Z,12.46
2022-09-12T06:01:36.490Z,12.53
2022-09-12T06:02:36.485Z,12.50
2022-09-12T06:03:36.426Z,12.53
2022-09-12T06:04:36.416Z,12.60
2022-09-12T06:05:36.434Z,12.58
2022-09-12T06:06:36.402Z,12.57
2022-09-12T06:07:36.391Z,12.68
2022-09-12T06:08:36.384Z,12.61
2022-09-12T06:09:36.375Z,12.62
2022-09-12T06:10:36.391Z,12.55
2022-09-12T06:11:36.360Z,12.62
2022-09-12T06:12:36.354Z,12.67
2022-09-12T06:13:36.346Z,12.62
2022-09-12T06:14:36.338Z,12.60
2022-09-12T06:15:36.354Z,12.60
2022-09-12T06:16:36.382Z,12.67
2022-09-12T06:17:36.315Z,12.60
2022-09-12T06:18:36.306Z,12.72
2022-09-12T06:19:36.295Z,12.70
2022-09-12T06:20:36.316Z,12.62
2022-09-12T06:21:36.281Z,12.65
2022-09-12T06:22:36.305Z,12.61
2022-09-12T06:23:36.268Z,12.61
2022-09-12T06:24:36.256Z,12.67
2022-09-12T06:25:36.273Z,12.61
2022-09-12T06:26:36.240Z,12.67
2022-09-12T06:27:36.254Z,12.65
2022-09-12T06:28:36.225Z,12.78
2022-09-12T06:29:36.218Z,12.78
2022-09-12T06:30:36.259Z,12.72
2022-09-12T06:31:36.201Z,12.67
2022-09-12T06:32:36.199Z,12.79
2022-09-12T06:33:36.188Z,12.70
2022-09-12T06:34:36.904Z,12.80
2022-09-12T06:35:36.200Z,12.76
2022-09-12T06:36:36.171Z,12.85
2022-09-12T06:37:36.176Z,12.78
2022-09-12T06:38:36.190Z,12.90
2022-09-12T06:39:36.143Z,12.78
2022-09-12T06:40:36.162Z,12.78
2022-09-12T06:41:38.463Z,12.79
2022-09-12T06:42:37.113Z,12.82
2022-09-12T06:43:36.106Z,12.72
2022-09-12T06:44:36.093Z,12.80
2022-09-12T06:45:37.198Z,12.76
2022-09-12T06:46:36.085Z,12.79
2022-09-12T06:47:36.078Z,12.87
2022-09-12T06:48:40.997Z,12.94
2022-09-12T06:49:38.055Z,12.97
2022-09-12T06:50:37.081Z,13.00
2022-09-12T06:51:36.048Z,13.04
2022-09-12T06:52:36.039Z,12.93
2022-09-12T06:53:36.025Z,12.95
2022-09-12T06:54:36.021Z,13.05
2022-09-12T06:55:36.036Z,13.01
2022-09-12T06:56:36.006Z,13.03
2022-09-12T06:57:35.996Z,12.98
2022-09-12T06:58:36.048Z,12.90
2022-09-12T06:59:35.980Z,12.87
2022-09-12T07:00:35.996Z,12.80
2022-09-12T07:01:36.024Z,12.78
2022-09-12T07:02:35.989Z,12.85
2022-09-12T07:03:35.946Z,12.82
2022-09-12T07:04:35.941Z,12.85
2022-09-12T07:05:35.963Z,13.00
2022-09-12T07:06:35.935Z,13.01
2022-09-12T07:07:35.917Z,13.01
2022-09-12T07:08:35.915Z,13.05
2022-09-12T07:09:35.917Z,13.30
2022-09-12T07:10:35.919Z,13.35
2022-09-12T07:11:35.888Z,13.44
2022-09-12T07:12:35.882Z,13.60
2022-09-12T07:13:35.869Z,13.57
2022-09-12T07:14:35.860Z,13.65
2022-09-12T07:15:35.876Z,13.65
2022-09-12T07:16:35.937Z,13.50
2022-09-12T07:17:35.834Z,13.49
2022-09-12T07:18:35.829Z,13.37
2022-09-12T07:19:35.821Z,13.35
2022-09-12T07:20:35.834Z,13.50
2022-09-12T07:21:35.805Z,13.49
2022-09-12T07:22:35.792Z,13.60
2022-09-12T07:23:35.809Z,13.42
2022-09-12T07:24:35.778Z,13.49
2022-09-12T07:25:35.793Z,13.46
2022-09-12T07:26:35.761Z,13.49
2022-09-12T07:27:35.752Z,13.63
2022-09-12T07:28:35.743Z,13.79
2022-09-12T07:29:37.507Z,13.86
2022-09-12T07:30:36.768Z,13.87
2022-09-12T07:31:35.715Z,13.86
2022-09-12T07:32:35.715Z,13.93
2022-09-12T07:33:35.735Z,14.10
2022-09-12T07:34:35.695Z,14.30
2022-09-12T07:35:35.718Z,14.32
2022-09-12T07:36:35.682Z,14.33
2022-09-12T07:37:35.671Z,14.50
2022-09-12T07:38:35.679Z,14.58
2022-09-12T07:39:35.650Z,14.54
2022-09-12T07:40:35.672Z,14.58
2022-09-12T07:41:35.638Z,14.62
2022-09-12T07:42:35.629Z,14.60
2022-09-12T07:43:35.658Z,14.43
2022-09-12T07:44:35.646Z,14.35
2022-09-12T07:45:35.676Z,14.37
2022-09-12T07:46:35.597Z,14.29
2022-09-12T07:47:35.698Z,13.96
2022-09-12T07:48:35.580Z,13.93
2022-09-12T07:49:35.577Z,14.07
2022-09-12T07:50:35.593Z,14.03
2022-09-12T07:51:35.556Z,14.20
2022-09-12T07:52:35.551Z,14.22
2022-09-12T07:53:35.594Z,14.36
2022-09-12T07:54:35.586Z,14.47
2022-09-12T07:55:35.530Z,14.54
2022-09-12T07:56:38.942Z,14.59
2022-09-12T07:57:36.516Z,14.62
2022-09-12T07:58:35.505Z,14.62
2022-09-12T07:59:52.010Z,14.62
2022-09-12T08:00:37.488Z,14.36
2022-09-12T08:01:35.585Z,14.28
2022-09-12T08:02:35.498Z,14.33
2022-09-12T08:03:35.565Z,14.32
2022-09-12T08:04:35.459Z,14.20
2022-09-12T08:05:35.450Z,14.26
2022-09-12T08:06:35.512Z,14.36
2022-09-12T08:07:35.601Z,14.43
2022-09-12T08:08:35.635Z,14.55
2022-09-12T08:09:35.531Z,14.62
2022-09-12T08:10:35.406Z,14.82
2022-09-12T08:11:35.424Z,14.88
2022-09-12T08:12:35.393Z,14.91
2022-09-12T08:13:35.432Z,14.88
2022-09-12T08:14:35.371Z,14.91
2022-09-12T08:15:35.405Z,14.96
2022-09-12T08:16:35.380Z,14.94
2022-09-12T08:17:35.348Z,15.02
2022-09-12T08:18:35.343Z,15.04
2022-09-12T08:19:35.335Z,15.18
2022-09-12T08:20:35.329Z,15.14
2022-09-12T08:21:35.358Z,15.28
2022-09-12T08:22:35.312Z,15.21
2022-09-12T08:23:35.355Z,15.21
2022-09-12T08:24:35.294Z,15.29
2022-09-12T08:25:35.279Z,15.42
2022-09-12T08:26:36.304Z,15.42
2022-09-12T08:27:35.287Z,15.44
2022-09-12T08:28:35.398Z,15.57
2022-09-12T08:29:35.257Z,15.59
2022-09-12T08:30:35.272Z,15.80
2022-09-12T08:31:35.263Z,15.65
2022-09-12T08:32:35.231Z,15.72
2022-09-12T08:33:35.253Z,15.77
2022-09-12T08:34:35.212Z,15.83
2022-09-12T08:35:35.227Z,16.00
2022-09-12T08:36:35.223Z,16.28
2022-09-12T08:37:35.196Z,16.31
2022-09-12T08:38:35.183Z,16.64
2022-09-12T08:39:35.182Z,16.76
2022-09-12T08:40:35.168Z,16.97
2022-09-12T08:41:35.212Z,17.30
2022-09-12T08:42:35.151Z,17.49
2022-09-12T08:43:35.183Z,17.68
2022-09-12T08:44:35.134Z,17.68
2022-09-12T08:45:35.193Z,17.67
2022-09-12T08:46:35.152Z,17.68
2022-09-12T08:47:35.113Z,17.60
2022-09-12T08:48:35.104Z,17.68
2022-09-12T08:49:35.098Z,17.70
2022-09-12T08:50:35.094Z,17.70
2022-09-12T08:51:35.098Z,17.60
2022-09-12T08:52:35.081Z,17.80
2022-09-12T08:53:35.086Z,17.70
2022-09-12T08:54:35.053Z,17.72
2022-09-12T08:55:35.057Z,17.92
2022-09-12T08:56:35.081Z,17.97
2022-09-12T08:57:35.031Z,18.35
2022-09-12T08:58:35.027Z,18.49
2022-09-12T08:59:35.015Z,18.73
2022-09-12T09:00:35.007Z,18.95
2022-09-12T09:01:35.070Z,19.07
2022-09-12T09:02:35.058Z,19.26
2022-09-12T09:03:35.014Z,18.89
2022-09-12T09:04:34.983Z,19.09
2022-09-12T09:05:34.969Z,19.47
2022-09-12T09:06:34.983Z,19.85
2022-09-12T09:07:34.957Z,20.19
2022-09-12T09:08:34.950Z,20.63
2022-09-12T09:09:34.953Z,21.00
2022-09-12T09:10:34.934Z,21.75
2022-09-12T09:11:34.957Z,22.04
2022-09-12T09:12:34.929Z,21.85
2022-09-12T09:13:34.923Z,22.00
2022-09-12T09:14:34.903Z,22.11
2022-09-12T09:15:34.920Z,22.32
2022-09-12T09:16:34.922Z,22.55
2022-09-12T09:17:34.880Z,22.53
2022-09-12T09:18:34.873Z,21.83
2022-09-12T09:19:34.861Z,21.36
2022-09-12T09:20:34.851Z,21.05
2022-09-12T09:21:34.876Z,20.75
2022-09-12T09:22:36.178Z,20.90
2022-09-12T09:23:34.829Z,20.75
2022-09-12T09:24:34.841Z,20.96
2022-09-12T09:25:34.812Z,20.90
2022-09-12T09:26:35.960Z,21.00
2022-09-12T09:27:40.805Z,21.50
2022-09-12T09:28:36.791Z,21.45
2022-09-12T09:29:34.779Z,21.43
2022-09-12T09:30:34.775Z,21.33
2022-09-12T09:31:34.793Z,21.54
2022-09-12T09:32:34.761Z,21.77
2022-09-12T09:33:34.749Z,21.93
2022-09-12T09:34:34.747Z,22.14
2022-09-12T09:35:36.719Z,22.15
2022-09-12T09:36:35.751Z,22.39
2022-09-12T09:37:34.722Z,22.41
2022-09-12T09:38:34.796Z,22.43
2022-09-12T09:39:34.701Z,22.47
2022-09-12T09:40:34.704Z,22.59
2022-09-12T09:41:34.720Z,22.73
2022-09-12T09:42:34.686Z,22.72
2022-09-12T09:43:34.675Z,22.90
2022-09-12T09:44:34.710Z,22.84
2022-09-12T09:45:34.659Z,23.20
2022-09-12T09:46:34.729Z,23.28
2022-09-12T09:47:34.644Z,23.37
2022-09-12T09:48:34.633Z,23.39
2022-09-12T09:49:34.627Z,23.59
2022-09-12T09:50:34.618Z,23.69
2022-09-12T09:51:34.647Z,23.76
2022-09-12T09:52:34.629Z,23.25
2022-09-12T09:53:34.596Z,22.93
2022-09-12T09:54:34.605Z,22.81
2022-09-12T09:55:34.583Z,22.80
2022-09-12T09:56:34.605Z,22.76
2022-09-12T09:57:34.578Z,22.51
2022-09-12T09:58:34.605Z,22.43
2022-09-12T09:59:34.565Z,22.29
2022-09-12T10:00:34.548Z,22.02
2022-09-12T10:01:34.578Z,21.61
2022-09-12T10:02:34.624Z,21.48
2022-09-12T10:03:34.539Z,21.40
2022-09-12T10:04:37.986Z,21.12
2022-09-12T10:05:36.502Z,21.03
2022-09-12T10:06:34.557Z,21.20
2022-09-12T10:07:34.521Z,21.37
2022-09-12T10:08:34.493Z,21.66
2022-09-12T10:09:34.488Z,22.07
2022-09-12T10:10:34.476Z,22.39
2022-09-12T10:11:34.466Z,22.48
2022-09-12T10:12:34.482Z,22.54
2022-09-12T10:13:34.447Z,22.80
2022-09-12T10:14:34.443Z,23.09
2022-09-12T10:15:34.462Z,23.17
2022-09-12T10:16:34.432Z,23.28
2022-09-12T10:17:34.799Z,23.37
2022-09-12T10:18:35.404Z,23.37
2022-09-12T10:19:34.396Z,23.40
2022-09-12T10:20:34.392Z,23.34
2022-09-12T10:21:34.414Z,23.50
2022-09-12T10:22:34.401Z,23.59
2022-09-12T10:23:34.384Z,23.54
2022-09-12T10:24:34.379Z,23.55
2022-09-12T10:25:34.357Z,23.55
2022-09-12T10:26:34.392Z,23.62
2022-09-12T10:27:34.387Z,23.68
2022-09-12T10:28:34.334Z,23.88
2022-09-12T10:29:34.332Z,23.84
2022-09-12T10:30:34.421Z,23.83
2022-09-12T10:31:34.312Z,23.98
2022-09-12T10:32:34.331Z,23.96
2022-09-12T10:33:34.293Z,23.98
2022-09-12T10:34:34.290Z,23.96
2022-09-12T10:35:34.286Z,23.88
2022-09-12T10:36:34.282Z,23.92
2022-09-12T10:37:34.294Z,24.08
2022-09-12T10:38:34.259Z,24.13
2022-09-12T10:39:34.250Z,24.06
2022-09-12T10:40:34.248Z,23.95
2022-09-12T10:41:34.237Z,23.95
2022-09-12T10:42:34.260Z,23.93
2022-09-12T10:43:34.222Z,24.03
2022-09-12T10:44:34.221Z,24.16
2022-09-12T10:45:34.208Z,24.33
2022-09-12T10:46:34.195Z,24.43
2022-09-12T10:47:35.225Z,24.65
2022-09-12T10:48:34.176Z,24.91
2022-09-12T10:49:34.173Z,24.85
2022-09-12T10:50:34.170Z,24.91
2022-09-12T10:51:34.163Z,24.91
2022-09-12T10:52:34.187Z,24.92
2022-09-12T10:53:34.815Z,24.92
2022-09-12T10:54:35.134Z,24.81
2022-09-12T10:55:34.135Z,24.47
2022-09-12T10:56:34.129Z,24.45
2022-09-12T10:57:34.149Z,24.53
2022-09-12T10:58:34.193Z,24.76
2022-09-12T10:59:34.097Z,24.88
2022-09-12T11:00:34.093Z,25.17
2022-09-12T11:01:34.169Z,25.32
2022-09-12T11:02:34.118Z,25.55
2022-09-12T11:03:34.072Z,25.40
2022-09-12T11:04:34.095Z,25.36
2022-09-12T11:05:34.098Z,25.16
2022-09-12T11:06:34.050Z,25.03
2022-09-12T11:07:34.038Z,25.10
2022-09-12T11:08:34.057Z,25.14
2022-09-12T11:09:34.027Z,25.16
2022-09-12T11:10:37.352Z,25.22
2022-09-12T11:11:35.045Z,25.41
2022-09-12T11:12:34.010Z,25.48
2022-09-12T11:13:34.024Z,25.55
2022-09-12T11:14:33.991Z,25.69
2022-09-12T11:15:34.052Z,25.54
2022-09-12T11:16:33.976Z,25.32
2022-09-12T11:17:33.963Z,24.69
2022-09-12T11:18:33.983Z,24.39
2022-09-12T11:19:33.948Z,24.26
2022-09-12T11:20:33.939Z,24.51
2022-09-12T11:21:33.935Z,24.77
2022-09-12T11:22:33.921Z,24.80
2022-09-12T11:23:33.937Z,25.03
2022-09-12T11:24:33.912Z,24.95
2022-09-12T11:25:33.907Z,24.86
2022-09-12T11:26:33.894Z,24.84
2022-09-12T11:27:33.888Z,24.81
2022-09-12T11:28:33.905Z,24.86
2022-09-12T11:29:33.868Z,24.93
2022-09-12T11:30:33.904Z,25.11
2022-09-12T11:31:33.855Z,25.18
2022-09-12T11:32:33.870Z,25.22
2022-09-12T11:33:33.875Z,25.21
2022-09-12T11:34:33.835Z,25.07
2022-09-12T11:35:33.824Z,24.98
2022-09-12T11:36:33.824Z,25.01
2022-09-12T11:37:33.817Z,24.96
2022-09-12T11:38:33.825Z,25.10
2022-09-12T11:39:33.804Z,25.10
2022-09-12T11:40:33.848Z,25.25
2022-09-12T11:41:33.781Z,25.46
2022-09-12T11:42:33.869Z,25.55
2022-09-12T11:43:33.795Z,25.38
2022-09-12T11:44:33.752Z,25.31
2022-09-12T11:45:33.746Z,25.14
2022-09-12T11:46:33.735Z,25.11
2022-09-12T11:47:33.736Z,25.17
2022-09-12T11:48:33.758Z,25.23
2022-09-12T11:49:35.745Z,25.40
2022-09-12T11:50:34.706Z,25.59
2022-09-12T11:51:33.701Z,25.77
2022-09-12T11:52:33.699Z,25.84
2022-09-12T11:53:33.711Z,25.90
2022-09-12T11:54:33.724Z,25.93
2022-09-12T11:55:33.668Z,25.84
2022-09-12T11:56:33.662Z,26.06
2022-09-12T11:57:33.657Z,25.98
2022-09-12T11:58:33.702Z,26.05
2022-09-12T11:59:33.670Z,26.13
2022-09-12T12:00:33.634Z,25.99
2022-09-12T12:01:37.415Z,26.06
2022-09-12T12:02:34.656Z,26.00
2022-09-12T12:03:34.138Z,25.85
2022-09-12T12:04:33.613Z,25.90
2022-09-12T12:05:33.595Z,25.70
2022-09-12T12:06:33.587Z,25.73
2022-09-12T12:07:33.577Z,25.80
2022-09-12T12:08:33.606Z,25.90
2022-09-12T12:09:33.586Z,25.90
2022-09-12T12:10:33.563Z,25.87
2022-09-12T12:11:33.555Z,25.70
2022-09-12T12:12:33.549Z,25.65
2022-09-12T12:13:33.570Z,25.69
2022-09-12T12:14:33.583Z,25.66
2022-09-12T12:15:33.567Z,25.80
2022-09-12T12:16:33.525Z,25.73
2022-09-12T12:17:33.509Z,25.90
2022-09-12T12:18:33.529Z,25.81
2022-09-12T12:19:33.494Z,25.78
2022-09-12T12:20:33.489Z,25.91
2022-09-12T12:21:33.473Z,25.91
2022-09-12T12:22:33.466Z,25.95
2022-09-12T12:23:33.492Z,25.87
2022-09-12T12:24:33.455Z,25.88
2022-09-12T12:25:33.447Z,25.95
2022-09-12T12:26:33.444Z,26.00
2022-09-12T12:27:33.433Z,26.31
2022-09-12T12:28:34.970Z,26.26
2022-09-12T12:29:34.413Z,26.28
2022-09-12T12:30:33.415Z,26.44
2022-09-12T12:31:33.460Z,26.68
2022-09-12T12:32:33.436Z,26.59
2022-09-12T12:33:33.412Z,26.60
2022-09-12T12:34:33.375Z,26.59
2022-09-12T12:35:33.368Z,26.37
2022-09-12T12:36:33.361Z,26.40
2022-09-12T12:37:33.365Z,26.38
2022-09-12T12:38:33.383Z,26.38
2022-09-12T12:39:33.389Z,26.41
2022-09-12T12:40:33.333Z,26.37
2022-09-12T12:41:33.329Z,26.33
2022-09-12T12:42:33.319Z,26.37
2022-09-12T12:43:33.340Z,26.52
2022-09-12T12:44:33.301Z,26.63
2022-09-12T12:45:33.323Z,26.60
2022-09-12T12:46:33.373Z,26.70
2022-09-12T12:47:33.289Z,26.84
2022-09-12T12:48:33.295Z,26.92
2022-09-12T12:49:33.264Z,26.73
2022-09-12T12:50:33.261Z,26.80
2022-09-12T12:51:33.249Z,26.74
2022-09-12T12:52:33.236Z,26.73